sensor_id;sensor_type;location;lat;lon;timestamp;temperature;humidity
67603;DHT22;54417;47.454;18.918;2022-09-09T00:04:24;16.46;88.60
67603;DHT22;54417;47.454;18.918;2022-09-09T00:09:58;16.41;88.70
67603;DHT22;54417;47.454;18.918;2022-09-09T00:15:26;16.32;88.93
67603;DHT22;54417;47.454;18.918;2022-09-09T00:20:58;16.36;89.01
67603;DHT22;54417;47.454;18.918;2022-09-09T00:26:34;16.25;89.64
67603;DHT22;54417;47.454;18.918;2022-09-09T00:32:09;16.22;89.73
67603;DHT22;54417;47.454;18.918;2022-09-09T00:37:35;16.24;89.83
67603;DHT22;54417;47.454;18.918;2022-09-09T00:48:59;16.41;88.36
67603;DHT22;54417;47.454;18.918;2022-09-09T00:54:33;16.39;88.45
67603;DHT22;54417;47.454;18.918;2022-09-09T01:00:17;16.39;88.74
67603;DHT22;54417;47.454;18.918;2022-09-09T01:05:45;16.38;88.91
67603;DHT22;54417;47.454;18.918;2022-09-09T01:11:16;16.32;88.86
67603;DHT22;54417;47.454;18.918;2022-09-09T01:16:45;16.29;88.94
67603;DHT22;54417;47.454;18.918;2022-09-09T01:22:15;16.32;88.98
67603;DHT22;54417;47.454;18.918;2022-09-09T01:27:46;16.32;88.69
67603;DHT22;54417;47.454;18.918;2022-09-09T01:33:13;16.39;88.47
67603;DHT22;54417;47.454;18.918;2022-09-09T01:38:37;16.33;88.69
67603;DHT22;54417;47.454;18.918;2022-09-09T01:44:03;16.29;88.98
67603;DHT22;54417;47.454;18.918;2022-09-09T01:49:29;16.17;89.50
67603;DHT22;54417;47.454;18.918;2022-09-09T01:54:53;16.11;89.78
67603;DHT22;54417;47.454;18.918;2022-09-09T02:00:22;16.24;89.08
67603;DHT22;54417;47.454;18.918;2022-09-09T02:06:00;16.25;89.16
67603;DHT22;54417;47.454;18.918;2022-09-09T02:11:29;16.24;88.94
67603;DHT22;54417;47.454;18.918;2022-09-09T02:17:20;16.19;88.63
67603;DHT22;54417;47.454;18.918;2022-09-09T02:23:02;16.15;88.94
67603;DHT22;54417;47.454;18.918;2022-09-09T02:28:30;16.12;88.49
67603;DHT22;54417;47.454;18.918;2022-09-09T02:33:59;16.07;87.98
67603;DHT22;54417;47.454;18.918;2022-09-09T02:39:24;16.01;88.38
67603;DHT22;54417;47.454;18.918;2022-09-09T02:44:48;16.01;87.95
67603;DHT22;54417;47.454;18.918;2022-09-09T02:50:16;15.90;88.57
67603;DHT22;54417;47.454;18.918;2022-09-09T02:55:45;15.87;87.75
67603;DHT22;54417;47.454;18.918;2022-09-09T03:01:12;15.91;87.53
67603;DHT22;54417;47.454;18.918;2022-09-09T03:06:38;15.76;88.01
67603;DHT22;54417;47.454;18.918;2022-09-09T03:12:11;15.80;87.64
67603;DHT22;54417;47.454;18.918;2022-09-09T03:17:35;15.86;87.80
67603;DHT22;54417;47.454;18.918;2022-09-09T03:23:01;15.91;87.64
67603;DHT22;54417;47.454;18.918;2022-09-09T03:28:25;15.80;88.27
67603;DHT22;54417;47.454;18.918;2022-09-09T03:33:55;15.76;88.25
67603;DHT22;54417;47.454;18.918;2022-09-09T03:39:24;15.77;87.79
67603;DHT22;54417;47.454;18.918;2022-09-09T03:44:48;15.67;88.50
67603;DHT22;54417;47.454;18.918;2022-09-09T03:50:15;15.54;89.04
67603;DHT22;54417;47.454;18.918;2022-09-09T03:55:45;15.49;89.26
67603;DHT22;54417;47.454;18.918;2022-09-09T04:01:10;15.38;89.86
67603;DHT22;54417;47.454;18.918;2022-09-09T04:06:37;15.28;90.32
67603;DHT22;54417;47.454;18.918;2022-09-09T04:12:03;15.18;90.76
67603;DHT22;54417;47.454;18.918;2022-09-09T04:17:29;15.08;90.72
67603;DHT22;54417;47.454;18.918;2022-09-09T04:22:53;15.18;91.05
67603;DHT22;54417;47.454;18.918;2022-09-09T04:28:20;15.20;91.13
67603;DHT22;54417;47.454;18.918;2022-09-09T04:33:45;15.28;91.10
67603;DHT22;54417;47.454;18.918;2022-09-09T04:39:08;15.35;90.92
67603;DHT22;54417;47.454;18.918;2022-09-09T04:44:35;15.44;90.62
67603;DHT22;54417;47.454;18.918;2022-09-09T04:49:59;15.43;90.60
67603;DHT22;54417;47.454;18.918;2022-09-09T04:55:24;15.53;90.32
67603;DHT22;54417;47.454;18.918;2022-09-09T05:00:49;15.57;90.27
67603;DHT22;54417;47.454;18.918;2022-09-09T05:06:15;15.64;90.23
67603;DHT22;54417;47.454;18.918;2022-09-09T05:11:41;15.70;90.10
67603;DHT22;54417;47.454;18.918;2022-09-09T05:17:33;15.84;89.07
67603;DHT22;54417;47.454;18.918;2022-09-09T05:22:57;16.11;88.05
67603;DHT22;54417;47.454;18.918;2022-09-09T05:28:24;16.39;86.24
67603;DHT22;54417;47.454;18.918;2022-09-09T05:33:50;16.55;86.08
67603;DHT22;54417;47.454;18.918;2022-09-09T05:39:14;16.67;85.54
67603;DHT22;54417;47.454;18.918;2022-09-09T05:44:38;16.83;85.16
67603;DHT22;54417;47.454;18.918;2022-09-09T05:50:07;17.00;85.32
67603;DHT22;54417;47.454;18.918;2022-09-09T05:55:31;17.15;84.89
67603;DHT22;54417;47.454;18.918;2022-09-09T06:01:01;17.34;84.47
67603;DHT22;54417;47.454;18.918;2022-09-09T06:06:31;17.69;83.38
67603;DHT22;54417;47.454;18.918;2022-09-09T06:12:03;17.99;82.63
67603;DHT22;54417;47.454;18.918;2022-09-09T06:17:30;18.09;82.05
67603;DHT22;54417;47.454;18.918;2022-09-09T06:22:56;18.37;81.57
67603;DHT22;54417;47.454;18.918;2022-09-09T06:28:19;18.61;80.93
67603;DHT22;54417;47.454;18.918;2022-09-09T06:33:44;18.79;80.85
67603;DHT22;54417;47.454;18.918;2022-09-09T06:39:09;18.95;79.70
67603;DHT22;54417;47.454;18.918;2022-09-09T06:44:36;18.96;79.50
67603;DHT22;54417;47.454;18.918;2022-09-09T06:50:04;18.91;79.25
67603;DHT22;54417;47.454;18.918;2022-09-09T06:55:31;18.87;79.86
67603;DHT22;54417;47.454;18.918;2022-09-09T07:01:02;18.84;80.16
67603;DHT22;54417;47.454;18.918;2022-09-09T07:06:28;18.43;80.26
67603;DHT22;54417;47.454;18.918;2022-09-09T07:11:56;18.43;80.75
67603;DHT22;54417;47.454;18.918;2022-09-09T07:17:25;19.00;79.96
67603;DHT22;54417;47.454;18.918;2022-09-09T07:22:49;19.10;78.86
67603;DHT22;54417;47.454;18.918;2022-09-09T07:28:14;19.16;78.20
67603;DHT22;54417;47.454;18.918;2022-09-09T07:33:38;19.46;78.03
67603;DHT22;54417;47.454;18.918;2022-09-09T07:39:05;19.78;75.77
67603;DHT22;54417;47.454;18.918;2022-09-09T07:44:31;20.08;76.25
67603;DHT22;54417;47.454;18.918;2022-09-09T07:50:05;20.22;73.69
67603;DHT22;54417;47.454;18.918;2022-09-09T07:55:29;20.42;73.36
67603;DHT22;54417;47.454;18.918;2022-09-09T08:00:54;20.52;73.49
67603;DHT22;54417;47.454;18.918;2022-09-09T08:06:20;20.77;73.08
67603;DHT22;54417;47.454;18.918;2022-09-09T08:11:44;21.08;73.06
67603;DHT22;54417;47.454;18.918;2022-09-09T08:17:10;21.21;70.72
67603;DHT22;54417;47.454;18.918;2022-09-09T08:22:34;21.38;69.94
67603;DHT22;54417;47.454;18.918;2022-09-09T08:28:00;21.62;70.18
67603;DHT22;54417;47.454;18.918;2022-09-09T08:33:25;21.82;69.15
67603;DHT22;54417;47.454;18.918;2022-09-09T08:38:51;22.11;68.42
67603;DHT22;54417;47.454;18.918;2022-09-09T08:44:22;22.30;68.49
67603;DHT22;54417;47.454;18.918;2022-09-09T08:50:02;22.51;67.70
67603;DHT22;54417;47.454;18.918;2022-09-09T08:55:38;22.54;66.05
67603;DHT22;54417;47.454;18.918;2022-09-09T09:01:17;22.75;63.76
67603;DHT22;54417;47.454;18.918;2022-09-09T09:06:58;22.82;63.39
67603;DHT22;54417;47.454;18.918;2022-09-09T09:12:30;22.86;61.60
67603;DHT22;54417;47.454;18.918;2022-09-09T09:17:56;23.00;62.79
67603;DHT22;54417;47.454;18.918;2022-09-09T09:23:24;23.07;63.60
67603;DHT22;54417;47.454;18.918;2022-09-09T09:28:53;23.23;61.13
67603;DHT22;54417;47.454;18.918;2022-09-09T09:34:19;23.51;57.90
67603;DHT22;54417;47.454;18.918;2022-09-09T09:39:44;23.49;58.56
67603;DHT22;54417;47.454;18.918;2022-09-09T09:45:32;23.64;56.68
67603;DHT22;54417;47.454;18.918;2022-09-09T09:51:00;23.82;56.09
67603;DHT22;54417;47.454;18.918;2022-09-09T09:56:29;23.86;55.95
67603;DHT22;54417;47.454;18.918;2022-09-09T10:02:11;24.04;55.07
67603;DHT22;54417;47.454;18.918;2022-09-09T10:07:37;24.08;48.17
67603;DHT22;54417;47.454;18.918;2022-09-09T10:13:07;24.15;51.99
67603;DHT22;54417;47.454;18.918;2022-09-09T10:18:45;24.10;52.18
67603;DHT22;54417;47.454;18.918;2022-09-09T10:24:26;24.47;51.45
67603;DHT22;54417;47.454;18.918;2022-09-09T10:30:04;24.73;50.37
67603;DHT22;54417;47.454;18.918;2022-09-09T10:35:33;24.94;49.50
67603;DHT22;54417;47.454;18.918;2022-09-09T10:41:08;25.05;49.76
67603;DHT22;54417;47.454;18.918;2022-09-09T10:46:45;25.04;47.60
67603;DHT22;54417;47.454;18.918;2022-09-09T10:52:13;25.11;48.46
67603;DHT22;54417;47.454;18.918;2022-09-09T10:57:40;25.35;48.10
67603;DHT22;54417;47.454;18.918;2022-09-09T11:03:10;25.45;45.37
67603;DHT22;54417;47.454;18.918;2022-09-09T11:08:39;25.62;46.52
67603;DHT22;54417;47.454;18.918;2022-09-09T11:14:09;25.83;46.89
67603;DHT22;54417;47.454;18.918;2022-09-09T11:19:39;26.01;47.69
67603;DHT22;54417;47.454;18.918;2022-09-09T11:25:07;26.11;46.44
67603;DHT22;54417;47.454;18.918;2022-09-09T11:30:37;26.78;47.58
67603;DHT22;54417;47.454;18.918;2022-09-09T11:36:38;26.99;47.37
67603;DHT22;54417;47.454;18.918;2022-09-09T11:42:08;26.86;46.11
67603;DHT22;54417;47.454;18.918;2022-09-09T11:47:39;26.47;47.31
67603;DHT22;54417;47.454;18.918;2022-09-09T11:53:20;25.77;49.73
67603;DHT22;54417;47.454;18.918;2022-09-09T11:58:55;25.42;48.25
67603;DHT22;54417;47.454;18.918;2022-09-09T12:04:33;25.55;50.12
67603;DHT22;54417;47.454;18.918;2022-09-09T12:10:04;25.87;49.39
67603;DHT22;54417;47.454;18.918;2022-09-09T12:15:29;26.24;47.02
67603;DHT22;54417;47.454;18.918;2022-09-09T12:20:58;26.48;48.23
67603;DHT22;54417;47.454;18.918;2022-09-09T12:26:31;26.40;46.49
67603;DHT22;54417;47.454;18.918;2022-09-09T12:32:01;26.17;45.59
67603;DHT22;54417;47.454;18.918;2022-09-09T12:37:33;26.17;45.80
67603;DHT22;54417;47.454;18.918;2022-09-09T12:42:59;26.24;46.98
67603;DHT22;54417;47.454;18.918;2022-09-09T12:48:30;26.07;45.95
67603;DHT22;54417;47.454;18.918;2022-09-09T12:53:55;25.72;46.61
67603;DHT22;54417;47.454;18.918;2022-09-09T12:59:25;25.63;47.59
67603;DHT22;54417;47.454;18.918;2022-09-09T13:04:50;25.86;47.27
67603;DHT22;54417;47.454;18.918;2022-09-09T13:10:22;25.84;46.29
67603;DHT22;54417;47.454;18.918;2022-09-09T13:16:07;25.84;46.89
67603;DHT22;54417;47.454;18.918;2022-09-09T13:21:41;25.67;45.66
67603;DHT22;54417;47.454;18.918;2022-09-09T13:27:23;25.89;45.03
67603;DHT22;54417;47.454;18.918;2022-09-09T13:33:03;26.16;44.50
67603;DHT22;54417;47.454;18.918;2022-09-09T13:38:29;26.28;43.68
67603;DHT22;54417;47.454;18.918;2022-09-09T13:43:54;26.31;42.35
67603;DHT22;54417;47.454;18.918;2022-09-09T13:49:22;26.63;41.39
67603;DHT22;54417;47.454;18.918;2022-09-09T13:54:47;27.00;44.22
67603;DHT22;54417;47.454;18.918;2022-09-09T14:00:13;27.22;42.40
67603;DHT22;54417;47.454;18.918;2022-09-09T14:05:38;26.52;43.53
67603;DHT22;54417;47.454;18.918;2022-09-09T14:11:02;26.22;44.39
67603;DHT22;54417;47.454;18.918;2022-09-09T14:16:26;25.82;44.68
67603;DHT22;54417;47.454;18.918;2022-09-09T14:21:53;25.62;45.29
67603;DHT22;54417;47.454;18.918;2022-09-09T14:27:17;25.72;44.91
67603;DHT22;54417;47.454;18.918;2022-09-09T14:32:40;26.13;44.96
67603;DHT22;54417;47.454;18.918;2022-09-09T14:38:05;26.58;44.60
67603;DHT22;54417;47.454;18.918;2022-09-09T14:43:29;26.71;44.13
67603;DHT22;54417;47.454;18.918;2022-09-09T14:48:54;26.21;43.93
67603;DHT22;54417;47.454;18.918;2022-09-09T14:54:20;26.16;43.00
67603;DHT22;54417;47.454;18.918;2022-09-09T14:59:45;26.20;42.20
67603;DHT22;54417;47.454;18.918;2022-09-09T15:05:09;26.03;43.46
67603;DHT22;54417;47.454;18.918;2022-09-09T15:10:34;25.98;43.80
67603;DHT22;54417;47.454;18.918;2022-09-09T15:16:03;26.17;43.43
67603;DHT22;54417;47.454;18.918;2022-09-09T15:21:29;26.21;41.74
67603;DHT22;54417;47.454;18.918;2022-09-09T15:26:54;26.42;41.65
67603;DHT22;54417;47.454;18.918;2022-09-09T15:32:18;27.58;39.62
67603;DHT22;54417;47.454;18.918;2022-09-09T15:37:42;26.95;42.96
67603;DHT22;54417;47.454;18.918;2022-09-09T15:43:09;27.30;43.32
67603;DHT22;54417;47.454;18.918;2022-09-09T15:48:32;26.44;51.48
67603;DHT22;54417;47.454;18.918;2022-09-09T15:53:57;25.62;42.47
67603;DHT22;54417;47.454;18.918;2022-09-09T15:59:22;25.32;55.66
67603;DHT22;54417;47.454;18.918;2022-09-09T16:04:46;24.80;55.92
67603;DHT22;54417;47.454;18.918;2022-09-09T16:10:09;24.49;56.35
67603;DHT22;54417;47.454;18.918;2022-09-09T16:15:37;24.15;55.94
67603;DHT22;54417;47.454;18.918;2022-09-09T16:21:00;23.88;51.39
67603;DHT22;54417;47.454;18.918;2022-09-09T16:26:25;23.77;50.39
67603;DHT22;54417;47.454;18.918;2022-09-09T16:31:51;23.53;59.79
67603;DHT22;54417;47.454;18.918;2022-09-09T16:37:14;23.28;60.04
67603;DHT22;54417;47.454;18.918;2022-09-09T16:42:39;22.76;60.19
67603;DHT22;54417;47.454;18.918;2022-09-09T16:48:05;22.24;62.23
67603;DHT22;54417;47.454;18.918;2022-09-09T16:53:29;21.90;63.55
67603;DHT22;54417;47.454;18.918;2022-09-09T16:58:54;21.58;63.04
67603;DHT22;54417;47.454;18.918;2022-09-09T17:04:21;21.34;66.29
67603;DHT22;54417;47.454;18.918;2022-09-09T17:09:46;21.08;67.66
67603;DHT22;54417;47.454;18.918;2022-09-09T17:15:10;20.83;62.93
67603;DHT22;54417;47.454;18.918;2022-09-09T17:20:36;20.56;68.36
67603;DHT22;54417;47.454;18.918;2022-09-09T17:26:10;20.12;69.62
67603;DHT22;54417;47.454;18.918;2022-09-09T17:31:34;19.77;71.73
67603;DHT22;54417;47.454;18.918;2022-09-09T17:36:59;19.54;72.24
67603;DHT22;54417;47.454;18.918;2022-09-09T17:42:23;19.43;71.33
67603;DHT22;54417;47.454;18.918;2022-09-09T17:47:47;19.38;70.46
67603;DHT22;54417;47.454;18.918;2022-09-09T17:53:13;19.41;69.45
67603;DHT22;54417;47.454;18.918;2022-09-09T17:58:38;19.50;68.99
67603;DHT22;54417;47.454;18.918;2022-09-09T18:04:04;19.49;71.12
67603;DHT22;54417;47.454;18.918;2022-09-09T18:09:29;19.50;71.64
67603;DHT22;54417;47.454;18.918;2022-09-09T18:14:53;19.63;72.06
67603;DHT22;54417;47.454;18.918;2022-09-09T18:20:19;19.51;72.15
67603;DHT22;54417;47.454;18.918;2022-09-09T18:25:44;19.40;72.45
67603;DHT22;54417;47.454;18.918;2022-09-09T18:31:11;19.24;72.57
67603;DHT22;54417;47.454;18.918;2022-09-09T18:36:37;19.26;73.46
67603;DHT22;54417;47.454;18.918;2022-09-09T18:42:03;19.19;72.71
67603;DHT22;54417;47.454;18.918;2022-09-09T18:47:27;19.22;71.79
67603;DHT22;54417;47.454;18.918;2022-09-09T18:52:51;19.13;72.70
67603;DHT22;54417;47.454;18.918;2022-09-09T18:58:16;18.89;74.05
67603;DHT22;54417;47.454;18.918;2022-09-09T19:03:40;18.71;74.23
67603;DHT22;54417;47.454;18.918;2022-09-09T19:09:04;18.44;75.13
67603;DHT22;54417;47.454;18.918;2022-09-09T19:14:29;18.38;75.44
67603;DHT22;54417;47.454;18.918;2022-09-09T19:19:53;18.17;76.38
67603;DHT22;54417;47.454;18.918;2022-09-09T19:25:17;17.93;76.79
67603;DHT22;54417;47.454;18.918;2022-09-09T19:30:42;17.76;76.93
67603;DHT22;54417;47.454;18.918;2022-09-09T19:36:10;17.75;77.64
67603;DHT22;54417;47.454;18.918;2022-09-09T19:41:34;17.82;77.18
67603;DHT22;54417;47.454;18.918;2022-09-09T19:47:00;17.96;78.45
67603;DHT22;54417;47.454;18.918;2022-09-09T19:52:24;17.96;76.78
67603;DHT22;54417;47.454;18.918;2022-09-09T19:57:48;18.03;75.54
67603;DHT22;54417;47.454;18.918;2022-09-09T20:03:13;18.11;74.57
67603;DHT22;54417;47.454;18.918;2022-09-09T20:08:43;18.33;75.07
67603;DHT22;54417;47.454;18.918;2022-09-09T20:14:07;18.31;76.10
67603;DHT22;54417;47.454;18.918;2022-09-09T20:19:32;18.30;77.01
67603;DHT22;54417;47.454;18.918;2022-09-09T20:24:56;18.11;75.89
67603;DHT22;54417;47.454;18.918;2022-09-09T20:30:20;18.17;78.65
67603;DHT22;54417;47.454;18.918;2022-09-09T20:35:45;18.07;79.44
67603;DHT22;54417;47.454;18.918;2022-09-09T20:41:08;17.86;79.53
67603;DHT22;54417;47.454;18.918;2022-09-09T20:46:37;17.87;79.51
67603;DHT22;54417;47.454;18.918;2022-09-09T20:52:03;17.90;80.51
67603;DHT22;54417;47.454;18.918;2022-09-09T20:57:27;17.96;81.36
67603;DHT22;54417;47.454;18.918;2022-09-09T21:02:50;18.03;81.37
67603;DHT22;54417;47.454;18.918;2022-09-09T21:08:15;18.11;81.25
67603;DHT22;54417;47.454;18.918;2022-09-09T21:13:40;17.93;80.32
67603;DHT22;54417;47.454;18.918;2022-09-09T21:19:04;17.96;80.46
67603;DHT22;54417;47.454;18.918;2022-09-09T21:24:29;17.90;82.05
67603;DHT22;54417;47.454;18.918;2022-09-09T21:29:53;17.83;80.67
67603;DHT22;54417;47.454;18.918;2022-09-09T21:35:16;17.81;80.09
67603;DHT22;54417;47.454;18.918;2022-09-09T21:40:42;17.73;81.54
67603;DHT22;54417;47.454;18.918;2022-09-09T21:46:06;17.69;81.81
67603;DHT22;54417;47.454;18.918;2022-09-09T21:51:30;17.71;79.49
67603;DHT22;54417;47.454;18.918;2022-09-09T21:56:56;17.85;80.36
67603;DHT22;54417;47.454;18.918;2022-09-09T22:02:20;17.82;80.37
67603;DHT22;54417;47.454;18.918;2022-09-09T22:07:46;17.63;81.93
67603;DHT22;54417;47.454;18.918;2022-09-09T22:13:11;17.68;82.48
67603;DHT22;54417;47.454;18.918;2022-09-09T22:18:35;17.68;83.23
67603;DHT22;54417;47.454;18.918;2022-09-09T22:24:02;17.59;84.46
67603;DHT22;54417;47.454;18.918;2022-09-09T22:29:27;17.61;84.53
67603;DHT22;54417;47.454;18.918;2022-09-09T22:34:51;17.49;85.04
67603;DHT22;54417;47.454;18.918;2022-09-09T22:40:14;17.61;84.91
67603;DHT22;54417;47.454;18.918;2022-09-09T22:45:41;17.56;85.07
67603;DHT22;54417;47.454;18.918;2022-09-09T22:51:06;17.52;85.62
67603;DHT22;54417;47.454;18.918;2022-09-09T22:56:30;17.51;86.10
67603;DHT22;54417;47.454;18.918;2022-09-09T23:01:55;17.46;86.08
67603;DHT22;54417;47.454;18.918;2022-09-09T23:07:19;17.49;86.18
67603;DHT22;54417;47.454;18.918;2022-09-09T23:12:44;17.53;86.33
67603;DHT22;54417;47.454;18.918;2022-09-09T23:18:09;17.51;86.80
67603;DHT22;54417;47.454;18.918;2022-09-09T23:23:33;17.66;86.90
67603;DHT22;54417;47.454;18.918;2022-09-09T23:28:59;17.76;87.23
67603;DHT22;54417;47.454;18.918;2022-09-09T23:34:25;17.69;87.33
67603;DHT22;54417;47.454;18.918;2022-09-09T23:39:48;17.78;87.10
67603;DHT22;54417;47.454;18.918;2022-09-09T23:45:12;17.66;87.41
67603;DHT22;54417;47.454;18.918;2022-09-09T23:50:37;17.62;87.72
67603;DHT22;54417;47.454;18.918;2022-09-09T23:56:01;17.59;87.77
